SWA3166 KPHX-KLAX
Flight info
| Callsign | SWA3166 |
|---|---|
| Flight time | 1h 0m |
| Altitude | 32000 |
| Route | KEENS3 WLVRN ESTWD HLYWD1 |
| Aircraft | B737/M-SDE2E3FGHIRWXY/LB1 |
Departure
| Time | 2026-04-20 13:58 |
|---|---|
| Airport | Phoenix Sky Harbor International Airport (KPHX) |
Arrival
| Time | 2026-04-20 14:58 |
|---|---|
| Airport | Los Angeles International Airport (KLAX) |
| Time | Latitude | Longitude | Altitude | Speed | Heading |
|---|---|---|---|---|---|
| 2026-04-20 13:53 | 33.43283 | -112.00275 | 1131 ft | 16 kts | 269° |
| 2026-04-20 13:54 | 33.43285 | -112.00445 | 1133 ft | 24 kts | 271° |
| 2026-04-20 13:54 | 33.43289 | -112.00640 | 1135 ft | 23 kts | 269° |
| 2026-04-20 13:54 | 33.43288 | -112.00828 | 1130 ft | 23 kts | 270° |
| 2026-04-20 13:54 | 33.43289 | -112.01035 | 1129 ft | 28 kts | 270° |
| 2026-04-20 13:55 | 33.43288 | -112.01264 | 1130 ft | 27 kts | 270° |
| 2026-04-20 13:55 | 33.43289 | -112.01481 | 1133 ft | 25 kts | 270° |
| 2026-04-20 13:55 | 33.43289 | -112.01683 | 1131 ft | 23 kts | 270° |
| 2026-04-20 13:55 | 33.43289 | -112.01873 | 1131 ft | 22 kts | 269° |
| 2026-04-20 13:56 | 33.43289 | -112.02057 | 1129 ft | 22 kts | 270° |
| 2026-04-20 13:56 | 33.43289 | -112.02236 | 1129 ft | 21 kts | 270° |
| 2026-04-20 13:56 | 33.43289 | -112.02410 | 1113 ft | 21 kts | 270° |
| 2026-04-20 13:56 | 33.43290 | -112.02577 | 1129 ft | 20 kts | 270° |
| 2026-04-20 13:57 | 33.43238 | -112.02701 | 1122 ft | 19 kts | 182° |
| 2026-04-20 13:57 | 33.43113 | -112.02665 | 1125 ft | 19 kts | 124° |
| 2026-04-20 13:57 | 33.43107 | -112.02486 | 1125 ft | 37 kts | 90° |
| 2026-04-20 13:57 | 33.43106 | -112.01883 | 1126 ft | 106 kts | 90° |
| 2026-04-20 13:58 | 33.43106 | -112.00772 | 1151 ft | 157 kts | 90° |
| 2026-04-20 13:58 | 33.43129 | -111.99432 | 1746 ft | 162 kts | 87° |
| 2026-04-20 13:58 | 33.43188 | -111.98046 | 2323 ft | 171 kts | 88° |
| 2026-04-20 13:58 | 33.43248 | -111.96522 | 2647 ft | 199 kts | 88° |
| 2026-04-20 13:59 | 33.43305 | -111.94774 | 2976 ft | 225 kts | 88° |
| 2026-04-20 13:59 | 33.43372 | -111.92828 | 3583 ft | 239 kts | 89° |
| 2026-04-20 13:59 | 33.43425 | -111.90844 | 4568 ft | 238 kts | 89° |
| 2026-04-20 13:59 | 33.43468 | -111.88836 | 5402 ft | 243 kts | 91° |
| 2026-04-20 14:00 | 33.43019 | -111.86926 | 6359 ft | 241 kts | 127° |
| 2026-04-20 14:00 | 33.41761 | -111.85620 | 7284 ft | 242 kts | 144° |
| 2026-04-20 14:00 | 33.40279 | -111.84613 | 8130 ft | 249 kts | 165° |
| 2026-04-20 14:00 | 33.38564 | -111.84565 | 9145 ft | 251 kts | 193° |
| 2026-04-20 14:01 | 33.36952 | -111.85392 | 10104 ft | 255 kts | 210° |
| 2026-04-20 14:01 | 33.35694 | -111.86881 | 10990 ft | 259 kts | 241° |
| 2026-04-20 14:01 | 33.35232 | -111.88929 | 11924 ft | 262 kts | 267° |
| 2026-04-20 14:01 | 33.35341 | -111.91119 | 12839 ft | 266 kts | 275° |
| 2026-04-20 14:02 | 33.35576 | -111.93357 | 13602 ft | 280 kts | 276° |
| 2026-04-20 14:02 | 33.35841 | -111.95796 | 13861 ft | 311 kts | 275° |
| 2026-04-20 14:02 | 33.36112 | -111.98488 | 14076 ft | 341 kts | 275° |
| 2026-04-20 14:02 | 33.36391 | -112.01386 | 14556 ft | 358 kts | 276° |
| 2026-04-20 14:03 | 33.36626 | -112.03354 | 15084 ft | 363 kts | 278° |
| 2026-04-20 14:03 | 33.37055 | -112.06337 | 16045 ft | 365 kts | 279° |
| 2026-04-20 14:03 | 33.37671 | -112.10315 | 17287 ft | 370 kts | 280° |
| 2026-04-20 14:03 | 33.38143 | -112.13358 | 18180 ft | 374 kts | 280° |
| 2026-04-20 14:04 | 33.38614 | -112.16433 | 18981 ft | 377 kts | 280° |
| 2026-04-20 14:04 | 33.39082 | -112.19536 | 19796 ft | 380 kts | 280° |
| 2026-04-20 14:04 | 33.39549 | -112.22665 | 20583 ft | 384 kts | 280° |
| 2026-04-20 14:04 | 33.39859 | -112.24758 | 21098 ft | 387 kts | 280° |
| 2026-04-20 14:05 | 33.40330 | -112.27944 | 21862 ft | 391 kts | 280° |
| 2026-04-20 14:05 | 33.40803 | -112.31162 | 22607 ft | 395 kts | 280° |
| 2026-04-20 14:05 | 33.41279 | -112.34411 | 23344 ft | 399 kts | 280° |
| 2026-04-20 14:05 | 33.41917 | -112.38769 | 24148 ft | 405 kts | 280° |
| 2026-04-20 14:06 | 33.42404 | -112.42103 | 24757 ft | 408 kts | 280° |
| 2026-04-20 14:06 | 33.42894 | -112.45463 | 25378 ft | 411 kts | 280° |
| 2026-04-20 14:06 | 33.43386 | -112.48846 | 25976 ft | 413 kts | 280° |
| 2026-04-20 14:06 | 33.43712 | -112.51093 | 26340 ft | 416 kts | 280° |
| 2026-04-20 14:07 | 33.44209 | -112.54513 | 26895 ft | 419 kts | 280° |
| 2026-04-20 14:07 | 33.44710 | -112.57972 | 27440 ft | 423 kts | 280° |
| 2026-04-20 14:07 | 33.45209 | -112.62609 | 28302 ft | 424 kts | 273° |
| 2026-04-20 14:07 | 33.45248 | -112.66120 | 29116 ft | 420 kts | 270° |
| 2026-04-20 14:08 | 33.45218 | -112.68470 | 29698 ft | 418 kts | 270° |
| 2026-04-20 14:08 | 33.45191 | -112.71942 | 30411 ft | 416 kts | 271° |
| 2026-04-20 14:08 | 33.45209 | -112.75351 | 31031 ft | 414 kts | 272° |
| 2026-04-20 14:08 | 33.45271 | -112.78778 | 31677 ft | 410 kts | 276° |
| 2026-04-20 14:09 | 33.45871 | -112.82072 | 31963 ft | 404 kts | 293° |
| 2026-04-20 14:09 | 33.46951 | -112.85182 | 31983 ft | 405 kts | 295° |
| 2026-04-20 14:09 | 33.49178 | -112.91319 | 31987 ft | 401 kts | 295° |
| 2026-04-20 14:10 | 33.51384 | -112.97467 | 31975 ft | 402 kts | 295° |
| 2026-04-20 14:10 | 33.53545 | -113.03600 | 31962 ft | 402 kts | 295° |
| 2026-04-20 14:11 | 33.55707 | -113.09793 | 31948 ft | 403 kts | 295° |
| 2026-04-20 14:11 | 33.57857 | -113.15977 | 31941 ft | 400 kts | 295° |
| 2026-04-20 14:12 | 33.59993 | -113.22124 | 31937 ft | 397 kts | 295° |
| 2026-04-20 14:12 | 33.62108 | -113.28225 | 31940 ft | 395 kts | 295° |
| 2026-04-20 14:13 | 33.64216 | -113.34315 | 31947 ft | 395 kts | 295° |
| 2026-04-20 14:13 | 33.66306 | -113.40362 | 31951 ft | 395 kts | 295° |
| 2026-04-20 14:14 | 33.68411 | -113.46468 | 31933 ft | 396 kts | 295° |
| 2026-04-20 14:14 | 33.70513 | -113.52579 | 31935 ft | 396 kts | 295° |
| 2026-04-20 14:15 | 33.72618 | -113.58706 | 31942 ft | 397 kts | 295° |
| 2026-04-20 14:15 | 33.74704 | -113.64794 | 31935 ft | 397 kts | 295° |
| 2026-04-20 14:16 | 33.76806 | -113.70939 | 31941 ft | 397 kts | 295° |
| 2026-04-20 14:16 | 33.78903 | -113.77077 | 31925 ft | 397 kts | 295° |
| 2026-04-20 14:17 | 33.80995 | -113.83219 | 31939 ft | 397 kts | 295° |
| 2026-04-20 14:17 | 33.83070 | -113.89330 | 31938 ft | 398 kts | 295° |
| 2026-04-20 14:18 | 33.85160 | -113.95498 | 31929 ft | 398 kts | 295° |
| 2026-04-20 14:18 | 33.87248 | -114.01673 | 31930 ft | 399 kts | 295° |
| 2026-04-20 14:19 | 33.89335 | -114.07856 | 31917 ft | 399 kts | 294° |
| 2026-04-20 14:19 | 33.91157 | -114.14117 | 31923 ft | 401 kts | 285° |
| 2026-04-20 14:20 | 33.92256 | -114.20722 | 31912 ft | 403 kts | 283° |
| 2026-04-20 14:20 | 33.93285 | -114.27354 | 31918 ft | 403 kts | 283° |
| 2026-04-20 14:21 | 33.94363 | -114.33975 | 31910 ft | 403 kts | 284° |
| 2026-04-20 14:21 | 33.95469 | -114.40587 | 31903 ft | 403 kts | 283° |
| 2026-04-20 14:22 | 33.96572 | -114.47152 | 31917 ft | 402 kts | 283° |
| 2026-04-20 14:22 | 33.97679 | -114.53758 | 31914 ft | 402 kts | 283° |
| 2026-04-20 14:23 | 33.98780 | -114.60357 | 31911 ft | 402 kts | 283° |
| 2026-04-20 14:23 | 33.99878 | -114.66961 | 31912 ft | 402 kts | 283° |
| 2026-04-20 14:24 | 34.00964 | -114.73516 | 31919 ft | 402 kts | 283° |
| 2026-04-20 14:24 | 34.02055 | -114.80122 | 31920 ft | 402 kts | 283° |
| 2026-04-20 14:25 | 34.03142 | -114.86730 | 31917 ft | 402 kts | 283° |
| 2026-04-20 14:25 | 34.04226 | -114.93337 | 31918 ft | 402 kts | 283° |
| 2026-04-20 14:26 | 34.05300 | -114.99907 | 31921 ft | 402 kts | 283° |
| 2026-04-20 14:26 | 34.06379 | -115.06525 | 31920 ft | 402 kts | 283° |
| 2026-04-20 14:27 | 34.07457 | -115.13150 | 31924 ft | 402 kts | 282° |
| 2026-04-20 14:27 | 34.08530 | -115.19771 | 31920 ft | 402 kts | 282° |
| 2026-04-20 14:28 | 34.09599 | -115.26384 | 31925 ft | 402 kts | 282° |
| 2026-04-20 14:28 | 34.10657 | -115.32956 | 31925 ft | 402 kts | 282° |
| 2026-04-20 14:29 | 34.11719 | -115.39576 | 31929 ft | 402 kts | 282° |
| 2026-04-20 14:29 | 34.12777 | -115.46195 | 31933 ft | 402 kts | 282° |
| 2026-04-20 14:30 | 34.13831 | -115.52819 | 31942 ft | 402 kts | 282° |
| 2026-04-20 14:30 | 34.14878 | -115.59412 | 31933 ft | 403 kts | 282° |
| 2026-04-20 14:31 | 34.15929 | -115.66052 | 31936 ft | 403 kts | 281° |
| 2026-04-20 14:31 | 34.16154 | -115.72776 | 31971 ft | 404 kts | 264° |
| 2026-04-20 14:32 | 34.15424 | -115.79516 | 31968 ft | 405 kts | 264° |
| 2026-04-20 14:32 | 34.14718 | -115.86262 | 31984 ft | 405 kts | 264° |
| 2026-04-20 14:33 | 34.14060 | -115.92975 | 32008 ft | 406 kts | 265° |
| 2026-04-20 14:33 | 34.13401 | -115.99738 | 32024 ft | 405 kts | 264° |
| 2026-04-20 14:34 | 34.12739 | -116.06495 | 32032 ft | 405 kts | 264° |
| 2026-04-20 14:34 | 34.12076 | -116.13235 | 32040 ft | 404 kts | 264° |
| 2026-04-20 14:35 | 34.11414 | -116.19922 | 32033 ft | 404 kts | 264° |
| 2026-04-20 14:35 | 34.10746 | -116.26657 | 31955 ft | 404 kts | 264° |
| 2026-04-20 14:36 | 34.10060 | -116.33385 | 31952 ft | 404 kts | 263° |
| 2026-04-20 14:36 | 34.09337 | -116.40113 | 31953 ft | 405 kts | 263° |
| 2026-04-20 14:37 | 34.08972 | -116.43490 | 31570 ft | 409 kts | 263° |
| 2026-04-20 14:37 | 34.08606 | -116.46884 | 30998 ft | 408 kts | 263° |
| 2026-04-20 14:37 | 34.08246 | -116.50221 | 30506 ft | 404 kts | 263° |
| 2026-04-20 14:37 | 34.07886 | -116.53566 | 29990 ft | 401 kts | 263° |
| 2026-04-20 14:38 | 34.07526 | -116.56889 | 29391 ft | 398 kts | 263° |
| 2026-04-20 14:38 | 34.07176 | -116.60179 | 28825 ft | 393 kts | 263° |
| 2026-04-20 14:38 | 34.06865 | -116.63428 | 28294 ft | 388 kts | 264° |
| 2026-04-20 14:38 | 34.06573 | -116.66646 | 27742 ft | 384 kts | 264° |
| 2026-04-20 14:39 | 34.06286 | -116.69830 | 27206 ft | 380 kts | 263° |
| 2026-04-20 14:39 | 34.05998 | -116.72989 | 26676 ft | 377 kts | 263° |
| 2026-04-20 14:39 | 34.05710 | -116.76114 | 26154 ft | 373 kts | 263° |
| 2026-04-20 14:39 | 34.05425 | -116.79166 | 25638 ft | 370 kts | 263° |
| 2026-04-20 14:40 | 34.05137 | -116.82239 | 25124 ft | 367 kts | 263° |
| 2026-04-20 14:40 | 34.04851 | -116.85286 | 24608 ft | 365 kts | 263° |
| 2026-04-20 14:40 | 34.04564 | -116.88326 | 24089 ft | 363 kts | 263° |
| 2026-04-20 14:40 | 34.04236 | -116.91332 | 23578 ft | 361 kts | 261° |
| 2026-04-20 14:41 | 34.03838 | -116.94307 | 23021 ft | 358 kts | 260° |
| 2026-04-20 14:41 | 34.03436 | -116.97259 | 22503 ft | 354 kts | 260° |
| 2026-04-20 14:41 | 34.03048 | -117.00176 | 22028 ft | 351 kts | 260° |
| 2026-04-20 14:41 | 34.02669 | -117.03075 | 21554 ft | 349 kts | 260° |
| 2026-04-20 14:42 | 34.02318 | -117.05925 | 21081 ft | 347 kts | 261° |
| 2026-04-20 14:42 | 34.01981 | -117.08795 | 20623 ft | 345 kts | 261° |
| 2026-04-20 14:42 | 34.01648 | -117.11654 | 20170 ft | 343 kts | 261° |
| 2026-04-20 14:42 | 34.01315 | -117.14497 | 19713 ft | 342 kts | 261° |
| 2026-04-20 14:43 | 34.00980 | -117.17328 | 19258 ft | 341 kts | 260° |
| 2026-04-20 14:43 | 34.00644 | -117.20153 | 18862 ft | 340 kts | 260° |
| 2026-04-20 14:43 | 34.00307 | -117.22971 | 18398 ft | 339 kts | 260° |
| 2026-04-20 14:43 | 33.99971 | -117.25779 | 17860 ft | 338 kts | 260° |
| 2026-04-20 14:44 | 33.99635 | -117.28576 | 17397 ft | 335 kts | 259° |
| 2026-04-20 14:44 | 33.99302 | -117.31351 | 16921 ft | 334 kts | 260° |
| 2026-04-20 14:44 | 33.98980 | -117.34076 | 16451 ft | 332 kts | 260° |
| 2026-04-20 14:44 | 33.98658 | -117.36827 | 15989 ft | 330 kts | 259° |
| 2026-04-20 14:45 | 33.98338 | -117.39557 | 15540 ft | 328 kts | 259° |
| 2026-04-20 14:45 | 33.98020 | -117.42269 | 15098 ft | 326 kts | 259° |
| 2026-04-20 14:45 | 33.97701 | -117.44968 | 14663 ft | 324 kts | 259° |
| 2026-04-20 14:45 | 33.97384 | -117.47652 | 14231 ft | 323 kts | 260° |
| 2026-04-20 14:46 | 33.97380 | -117.50359 | 13765 ft | 326 kts | 276° |
| 2026-04-20 14:46 | 33.97783 | -117.53036 | 13332 ft | 324 kts | 278° |
| 2026-04-20 14:46 | 33.98218 | -117.55686 | 12899 ft | 321 kts | 278° |
| 2026-04-20 14:46 | 33.98641 | -117.58283 | 12476 ft | 319 kts | 278° |
| 2026-04-20 14:47 | 33.99062 | -117.60927 | 12058 ft | 316 kts | 278° |
| 2026-04-20 14:47 | 33.99460 | -117.63488 | 11653 ft | 314 kts | 277° |
| 2026-04-20 14:47 | 33.99854 | -117.66065 | 11248 ft | 312 kts | 277° |
| 2026-04-20 14:48 | 34.00628 | -117.71176 | 10453 ft | 307 kts | 277° |
| 2026-04-20 14:48 | 34.01007 | -117.73693 | 10048 ft | 302 kts | 277° |
| 2026-04-20 14:48 | 34.01374 | -117.76128 | 9699 ft | 289 kts | 277° |
| 2026-04-20 14:48 | 34.01461 | -117.78500 | 9259 ft | 279 kts | 262° |
| 2026-04-20 14:49 | 34.01233 | -117.80805 | 8888 ft | 276 kts | 259° |
| 2026-04-20 14:49 | 34.00978 | -117.83058 | 8520 ft | 274 kts | 259° |
| 2026-04-20 14:49 | 34.00726 | -117.85323 | 8173 ft | 271 kts | 260° |
| 2026-04-20 14:49 | 34.00490 | -117.87562 | 7824 ft | 269 kts | 260° |
| 2026-04-20 14:50 | 34.00264 | -117.89797 | 7471 ft | 268 kts | 260° |
| 2026-04-20 14:50 | 34.00043 | -117.92021 | 7106 ft | 266 kts | 261° |
| 2026-04-20 14:50 | 33.99827 | -117.94225 | 6767 ft | 264 kts | 261° |
| 2026-04-20 14:50 | 33.99611 | -117.96414 | 6422 ft | 263 kts | 261° |
| 2026-04-20 14:51 | 33.99396 | -117.98601 | 6070 ft | 262 kts | 261° |
| 2026-04-20 14:51 | 33.99181 | -118.00775 | 5719 ft | 261 kts | 261° |
| 2026-04-20 14:51 | 33.98965 | -118.02939 | 5376 ft | 260 kts | 261° |
| 2026-04-20 14:51 | 33.98752 | -118.05067 | 5080 ft | 259 kts | 262° |
| 2026-04-20 14:52 | 33.98538 | -118.07211 | 4801 ft | 256 kts | 262° |
| 2026-04-20 14:52 | 33.98328 | -118.09322 | 4514 ft | 252 kts | 262° |
| 2026-04-20 14:52 | 33.98120 | -118.11403 | 4244 ft | 248 kts | 262° |
| 2026-04-20 14:52 | 33.97916 | -118.13449 | 3950 ft | 244 kts | 262° |
| 2026-04-20 14:53 | 33.97714 | -118.15468 | 3706 ft | 240 kts | 262° |
| 2026-04-20 14:53 | 33.97534 | -118.17426 | 3484 ft | 230 kts | 264° |
| 2026-04-20 14:53 | 33.97368 | -118.19316 | 3228 ft | 224 kts | 263° |
| 2026-04-20 14:53 | 33.97180 | -118.21131 | 3060 ft | 212 kts | 262° |
| 2026-04-20 14:54 | 33.97005 | -118.22796 | 2950 ft | 196 kts | 262° |
| 2026-04-20 14:54 | 33.96839 | -118.24396 | 2713 ft | 189 kts | 262° |
| 2026-04-20 14:54 | 33.96677 | -118.25952 | 2472 ft | 182 kts | 262° |
| 2026-04-20 14:54 | 33.96527 | -118.27405 | 2235 ft | 169 kts | 262° |
| 2026-04-20 14:55 | 33.96388 | -118.28747 | 2058 ft | 151 kts | 262° |
| 2026-04-20 14:55 | 33.96261 | -118.29944 | 1819 ft | 137 kts | 260° |
| 2026-04-20 14:55 | 33.96145 | -118.31057 | 1662 ft | 133 kts | 261° |
| 2026-04-20 14:55 | 33.96031 | -118.32170 | 1481 ft | 134 kts | 261° |
| 2026-04-20 14:56 | 33.95918 | -118.33273 | 1309 ft | 132 kts | 261° |
| 2026-04-20 14:56 | 33.95796 | -118.34374 | 1110 ft | 133 kts | 259° |
| 2026-04-20 14:56 | 33.95652 | -118.35453 | 882 ft | 131 kts | 262° |
| 2026-04-20 14:56 | 33.95551 | -118.36533 | 727 ft | 131 kts | 261° |
| 2026-04-20 14:57 | 33.95442 | -118.37639 | 558 ft | 134 kts | 265° |
| 2026-04-20 14:57 | 33.95357 | -118.38751 | 383 ft | 132 kts | 264° |
| 2026-04-20 14:57 | 33.95243 | -118.39849 | 208 ft | 132 kts | 263° |
| 2026-04-20 14:57 | 33.95139 | -118.40933 | 126 ft | 123 kts | 263° |
| 2026-04-20 14:58 | 33.95054 | -118.41722 | 125 ft | 64 kts | 263° |
| 2026-04-20 14:58 | 33.95023 | -118.42032 | 125 ft | 25 kts | 263° |
| 2026-04-20 14:58 | 33.94998 | -118.42262 | 125 ft | 29 kts | 262° |
| 2026-04-20 14:58 | 33.94952 | -118.42493 | 124 ft | 27 kts | 248° |
| 2026-04-20 14:59 | 33.94852 | -118.42679 | 124 ft | 26 kts | 226° |
| 2026-04-20 14:59 | 33.94704 | -118.42775 | 121 ft | 24 kts | 186° |
| 2026-04-20 14:59 | 33.94643 | -118.42629 | 125 ft | 24 kts | 82° |
| 2026-04-20 14:59 | 33.94664 | -118.42432 | 123 ft | 23 kts | 83° |
| 2026-04-20 15:00 | 33.94686 | -118.42213 | 123 ft | 29 kts | 83° |
| 2026-04-20 15:00 | 33.94711 | -118.41966 | 125 ft | 29 kts | 83° |
| 2026-04-20 15:00 | 33.94735 | -118.41736 | 125 ft | 27 kts | 83° |
| 2026-04-20 15:00 | 33.94756 | -118.41521 | 125 ft | 25 kts | 83° |
| 2026-04-20 15:01 | 33.94792 | -118.41320 | 123 ft | 25 kts | 83° |
| 2026-04-20 15:01 | 33.94812 | -118.41125 | 125 ft | 23 kts | 82° |
| 2026-04-20 15:01 | 33.94833 | -118.40926 | 123 ft | 27 kts | 83° |
| 2026-04-20 15:01 | 33.94855 | -118.40704 | 125 ft | 26 kts | 83° |
| 2026-04-20 15:02 | 33.94874 | -118.40501 | 125 ft | 23 kts | 82° |
| 2026-04-20 15:02 | 33.94886 | -118.40312 | 123 ft | 22 kts | 111° |
| 2026-04-20 15:02 | 33.94755 | -118.40261 | 122 ft | 14 kts | 170° |
| 2026-04-20 15:02 | 33.94724 | -118.40211 | 125 ft | 6 kts | 84° |
| 2026-04-20 15:03 | 33.94725 | -118.40197 | 123 ft | 0 kts | 83° |